Allendale, MI (49401)

17:08 EDT le 01 juillet 2015 (GMT -0400)
Trail Creek Pass | | Change Station
CLOSE
Current Station
Stations météorologiques personnelles
Location: Coopersville, MI
Altitude: 659 ft
Stations météo à proximité

Alt. 659 ft 43.01 °N, 86.00 °W | Updated 7 seconds ago

Nuageux
Nuageux
62.2 ° F
Paraît 62.2 ° F
N
1.1
Vent Variable Vent de Nord
Gusts 2.0 mph

Aujourd'hui
Haut(e) -- | Bas -- ° F
--% Risque de précip.
Hier
Haut(e) -- | Bas -- ° F
Precip. -- pouce
6:08 AM 9:26 PM
Pleine lune, 100% visible
Pression 29.97 pouce
Visibilité 10.0 Miles terrestres
Nuages Ciel dégagé
Point de rosée 55 ° F
Humidité 78%
Précipitations 0.00 pouce
Profondeur de la couche neigeuse Non disponible.
UV 7 sur 12
Pollen 4.50 sur 12
Qualité de l'air Non disponible.
Flu Activity Non disponible.
METAR KBIV 012053Z AUTO 32011G18KT 10SM CLR 16/11 A2997 RMK AO2 SLP147 T01560106 58005

More Conditions Fewer Conditions

Pression 29.97 pouce
Visibilité 10.0 Miles terrestres
Nuages Ciel dégagé
Point de rosée 55 ° F
Humidité 78%
Précipitations 0.00 pouce
Profondeur de la couche neigeuse Non disponible.
UV 7 sur 12
Pollen 4.50 sur 12
Qualité de l'air Non disponible.
Flu Activity Non disponible.
METAR KBIV 012053Z AUTO 32011G18KT 10SM CLR 16/11 A2997 RMK AO2 SLP147 T01560106 58005

More Conditions Fewer Conditions

10-Day Weather Forecast

×

Almanac

Astronomie

Jul. 01, 2015 Lever Coucher
Temps réel
Crépuscule civil
Crépuscule nautique
Crépuscule astronomique
Lune
Durée de lumière visible
Longueur du jour
Tomorrow will be .
, % of the Moon is Illuminated

Extrêmes aujourd'hui

State Highs State Lows

Community

WunderPhotos

Upload Photos

1,834,286 Photos téléchargées !

WunderBlogs® & News

Nearby

Qualité de l'air

  Qualité de l'air Indice de la qualité de l'air Polluant
Not available.

Épaisseur de neige

Station Depth Altitude

Activité sismique

Ville Distance Mag. Time & Date
Minimum magnitude displayed is 2.5.

Températures des eaux côtières

Lieu Température

Stations

Stations météo à proximité

Emplacement de la station Température Refroidissement éolien Point de rosée Humidité Vent Precip. Alt. Mise à jour Type